Time;durP1;ratioP1;P1;durP2;ratioP2;P2;SDS_P1;SDS_P2;PMS_P1;PMS_P2;Temp;Humidity;BMP_temperature;BMP_pressure;BME280_temperature;BME280_humidity;BME280_pressure;Samples;Min_cycle;Max_cycle;Signal;HPM_P1;HPM_P2
2022/02/25 00:00:27;;;;;;;2.25;1.25;;;1.70;99.90;;;;;;5103193;28;20032;-67
2022/02/25 00:02:53;;;;;;;1.85;1.48;;;1.60;99.90;;;;;;5092164;28;20062;-67
2022/02/25 00:05:18;;;;;;;3.17;1.67;;;1.60;99.90;;;;;;5104906;27;20486;-67
2022/02/25 00:07:44;;;;;;;1.20;0.90;;;1.60;99.90;;;;;;5100068;28;20028;-67
2022/02/25 00:10:10;;;;;;;6.75;1.38;;;1.60;99.90;;;;;;5098747;28;20103;-67
2022/02/25 00:12:37;;;;;;;3.58;1.05;;;1.60;99.90;;;;;;5083397;27;20054;-67
2022/02/25 00:15:03;;;;;;;1.00;0.90;;;1.60;99.90;;;;;;5096267;28;20043;-67
2022/02/25 00:17:29;;;;;;;3.45;1.52;;;1.70;99.90;;;;;;5099495;28;20104;-67
2022/02/25 00:19:54;;;;;;;2.80;1.45;;;1.80;99.90;;;;;;5101443;28;20106;-67
2022/02/25 00:22:20;;;;;;;3.05;1.55;;;1.80;99.90;;;;;;5102969;27;20102;-67
2022/02/25 00:24:46;;;;;;;1.58;1.15;;;1.90;99.90;;;;;;5099479;28;20475;-67
2022/02/25 00:27:11;;;;;;;2.22;1.13;;;1.90;99.90;;;;;;5100648;28;20039;-67
2022/02/25 00:29:37;;;;;;;7.97;1.90;;;1.90;99.90;;;;;;5097158;27;20070;-67
2022/02/25 00:32:03;;;;;;;2.85;1.65;;;1.90;99.90;;;;;;5105278;27;20024;-67
2022/02/25 00:34:29;;;;;;;1.40;1.02;;;1.80;99.90;;;;;;5101561;28;20157;-67
2022/02/25 00:36:54;;;;;;;4.00;1.27;;;1.80;99.90;;;;;;5104299;27;20653;-67
2022/02/25 00:39:20;;;;;;;2.70;1.50;;;1.80;99.90;;;;;;5102479;27;20043;-67
2022/02/25 00:41:45;;;;;;;2.00;1.08;;;1.80;99.90;;;;;;5096811;28;20031;-67
2022/02/25 00:44:11;;;;;;;1.35;1.10;;;1.80;99.90;;;;;;5099916;28;20035;-67
2022/02/25 00:46:37;;;;;;;1.10;1.00;;;1.80;99.90;;;;;;5101823;27;20080;-67
2022/02/25 00:49:02;;;;;;;2.00;1.05;;;1.80;99.90;;;;;;5081994;28;20043;-67
2022/02/25 00:51:28;;;;;;;2.05;1.10;;;1.80;99.90;;;;;;5099770;27;20502;-67
2022/02/25 00:53:54;;;;;;;0.70;0.70;;;1.80;99.90;;;;;;5079514;28;20024;-67
2022/02/25 00:56:21;;;;;;;3.33;1.38;;;1.80;99.90;;;;;;5096005;28;20076;-67
2022/02/25 00:58:47;;;;;;;1.33;0.93;;;1.80;99.90;;;;;;5099685;28;20134;-67
2022/02/25 01:01:13;;;;;;;3.00;1.20;;;1.80;99.90;;;;;;5096246;28;20531;-67
2022/02/25 01:03:38;;;;;;;0.93;0.90;;;1.90;99.90;;;;;;5100937;28;20024;-67
2022/02/25 01:06:04;;;;;;;3.33;1.33;;;1.80;99.90;;;;;;5098809;27;20027;-67
2022/02/25 01:08:30;;;;;;;2.53;1.25;;;1.70;99.90;;;;;;5099625;28;20091;-67
2022/02/25 01:10:55;;;;;;;2.17;1.10;;;1.70;99.90;;;;;;5099009;28;20456;-67
2022/02/25 01:13:21;;;;;;;2.47;1.45;;;1.70;99.90;;;;;;5097348;28;20035;-67
2022/02/25 01:15:46;;;;;;;3.97;2.10;;;1.80;99.90;;;;;;5101821;28;20850;-67
2022/02/25 01:18:12;;;;;;;3.25;1.75;;;1.80;99.90;;;;;;5102241;28;20098;-67
2022/02/25 01:20:38;;;;;;;2.15;1.40;;;1.90;99.90;;;;;;5084202;28;20015;-67
2022/02/25 01:23:04;;;;;;;2.65;1.45;;;1.90;99.90;;;;;;5076179;28;20553;-67
2022/02/25 01:25:30;;;;;;;2.53;1.75;;;1.90;99.90;;;;;;5096891;28;20030;-67
2022/02/25 01:27:56;;;;;;;0.95;0.88;;;1.90;99.90;;;;;;5099425;28;20518;-67
2022/02/25 01:30:22;;;;;;;2.15;1.23;;;2.00;99.90;;;;;;5100293;28;20523;-67
2022/02/25 01:32:47;;;;;;;3.15;1.83;;;2.00;99.90;;;;;;5101989;27;20123;-67
2022/02/25 01:35:13;;;;;;;1.92;1.05;;;2.00;99.90;;;;;;5097847;28;20039;-67
2022/02/25 01:37:38;;;;;;;2.25;1.40;;;1.90;99.90;;;;;;5095084;28;20424;-67
2022/02/25 01:40:04;;;;;;;3.13;1.65;;;1.90;99.90;;;;;;5103792;27;20024;-67
2022/02/25 01:42:41;;;;;;;3.63;1.75;;;1.90;99.90;;;;;;5083262;28;20059;-67
2022/02/25 01:45:07;;;;;;;2.72;1.75;;;1.90;99.90;;;;;;5099144;27;20488;-67
2022/02/25 01:47:32;;;;;;;9.85;2.55;;;1.90;99.90;;;;;;5102496;28;20097;-67
2022/02/25 01:49:58;;;;;;;3.17;1.45;;;1.80;99.90;;;;;;5088521;28;20024;-67
2022/02/25 01:52:23;;;;;;;1.85;1.35;;;1.90;99.90;;;;;;5099440;28;20034;-67
2022/02/25 01:54:49;;;;;;;5.30;1.95;;;1.90;99.90;;;;;;5082664;28;20543;-67
2022/02/25 01:57:16;;;;;;;2.55;1.45;;;1.90;99.90;;;;;;5082822;28;20031;-67
2022/02/25 01:59:42;;;;;;;6.63;1.52;;;1.80;99.90;;;;;;5079476;28;20028;-67
2022/02/25 02:02:08;;;;;;;1.25;1.02;;;1.80;99.90;;;;;;5098861;28;20104;-67
2022/02/25 02:04:36;;;;;;;1.58;1.20;;;1.80;99.90;;;;;;5094862;28;20437;-67
2022/02/25 02:07:03;;;;;;;5.18;1.30;;;1.80;99.90;;;;;;5102474;28;20023;-68
2022/02/25 02:09:29;;;;;;;0.93;0.90;;;1.80;99.90;;;;;;5085587;28;20016;-67
2022/02/25 02:11:55;;;;;;;3.88;1.52;;;1.80;99.90;;;;;;5092626;28;20028;-67
2022/02/25 02:14:23;;;;;;;3.15;1.10;;;1.80;99.90;;;;;;5096948;28;20561;-67
2022/02/25 02:16:51;;;;;;;3.00;1.92;;;1.80;99.90;;;;;;5085393;28;20059;-67
2022/02/25 02:19:19;;;;;;;2.72;1.48;;;1.90;99.90;;;;;;5104851;28;20023;-67
2022/02/25 02:21:50;;;;;;;4.20;1.73;;;1.80;99.90;;;;;;5097486;28;20514;-67
2022/02/25 02:24:16;;;;;;;2.65;1.35;;;1.80;99.90;;;;;;5099889;28;20479;-67
2022/02/25 02:26:43;;;;;;;1.17;1.02;;;1.80;99.90;;;;;;5072958;28;20027;-67
2022/02/25 02:29:09;;;;;;;2.33;1.40;;;1.80;99.90;;;;;;5100636;28;20104;-67
2022/02/25 02:31:36;;;;;;;1.83;1.13;;;1.80;99.90;;;;;;5101683;28;20038;-67
2022/02/25 02:34:02;;;;;;;1.58;0.90;;;1.80;99.90;;;;;;5098578;27;20034;-67
2022/02/25 02:36:28;;;;;;;1.85;1.10;;;1.80;99.90;;;;;;5104635;27;20687;-67
2022/02/25 02:38:54;;;;;;;9.63;1.25;;;1.80;99.90;;;;;;5087059;28;20141;-67
2022/02/25 02:41:20;;;;;;;1.55;1.10;;;1.80;99.90;;;;;;5092269;27;20040;-67
2022/02/25 02:43:45;;;;;;;1.27;1.00;;;1.90;99.90;;;;;;5104441;27;20216;-67
2022/02/25 02:46:12;;;;;;;1.23;1.10;;;1.80;99.90;;;;;;5089018;28;20055;-67
2022/02/25 02:48:38;;;;;;;4.25;1.50;;;1.80;99.90;;;;;;5108383;27;20072;-67
2022/02/25 02:51:04;;;;;;;3.13;1.17;;;1.90;99.90;;;;;;5105887;27;20430;-67
2022/02/25 02:53:30;;;;;;;1.00;0.90;;;1.80;99.90;;;;;;5106558;27;20047;-67
2022/02/25 02:55:56;;;;;;;1.10;1.00;;;1.80;99.90;;;;;;5103602;27;20085;-67
2022/02/25 02:58:21;;;;;;;0.80;0.77;;;1.70;99.90;;;;;;5106556;27;20027;-67
2022/02/25 03:00:49;;;;;;;1.85;1.00;;;1.70;99.90;;;;;;5107300;28;20397;-67
2022/02/25 03:03:15;;;;;;;4.20;1.10;;;1.80;99.90;;;;;;5100262;27;20542;-67
2022/02/25 03:05:42;;;;;;;0.75;0.75;;;1.80;99.90;;;;;;5105601;27;20036;-67
2022/02/25 03:08:07;;;;;;;10.73;1.33;;;1.80;99.90;;;;;;5102030;28;20024;-67
2022/02/25 03:10:34;;;;;;;2.08;1.27;;;1.70;99.90;;;;;;5107052;27;20069;-67
2022/02/25 03:13:00;;;;;;;1.67;0.98;;;1.70;99.90;;;;;;5101473;28;20059;-67
2022/02/25 03:15:26;;;;;;;3.38;1.48;;;1.70;99.90;;;;;;5104855;27;20028;-67
2022/02/25 03:17:52;;;;;;;2.42;1.98;;;1.70;99.90;;;;;;5102654;28;20024;-67
2022/02/25 03:20:18;;;;;;;0.80;0.80;;;1.70;99.90;;;;;;5104627;27;20035;-67
2022/02/25 03:22:44;;;;;;;1.05;0.98;;;1.60;99.90;;;;;;5088303;28;20031;-67
2022/02/25 03:25:09;;;;;;;1.00;0.80;;;1.60;99.90;;;;;;5104763;28;20475;-67
2022/02/25 03:27:35;;;;;;;1.23;0.95;;;1.70;99.90;;;;;;5104904;28;20483;-67
2022/02/25 03:30:02;;;;;;;38.88;3.90;;;1.70;99.90;;;;;;5104309;28;20031;-67
2022/02/25 03:32:28;;;;;;;2.72;1.23;;;1.80;99.90;;;;;;5103835;28;20065;-67
2022/02/25 03:34:53;;;;;;;1.40;1.27;;;1.90;99.90;;;;;;5087364;28;20024;-67
2022/02/25 03:37:19;;;;;;;1.60;0.98;;;1.70;99.90;;;;;;5101871;28;20024;-67
2022/02/25 03:39:46;;;;;;;4.43;1.45;;;1.70;99.90;;;;;;5105490;27;20036;-67
2022/02/25 03:42:11;;;;;;;1.27;1.10;;;1.70;99.90;;;;;;5106314;27;20467;-67
2022/02/25 03:44:37;;;;;;;3.28;1.13;;;1.70;99.90;;;;;;5085055;28;20030;-67
2022/02/25 03:47:03;;;;;;;1.92;1.20;;;1.80;99.90;;;;;;5100967;28;20527;-67
2022/02/25 03:49:29;;;;;;;4.20;1.80;;;1.80;99.90;;;;;;5091078;28;20052;-67
2022/02/25 03:51:55;;;;;;;3.10;1.38;;;1.80;99.90;;;;;;5105261;28;20292;-67
2022/02/25 03:54:21;;;;;;;11.52;1.33;;;1.70;99.90;;;;;;5089527;28;20016;-67
2022/02/25 03:56:47;;;;;;;1.48;1.15;;;1.80;99.90;;;;;;5104092;27;20039;-67
2022/02/25 03:59:12;;;;;;;1.55;0.90;;;1.80;99.90;;;;;;5105808;28;20032;-67
2022/02/25 04:01:38;;;;;;;2.35;2.15;;;1.80;99.90;;;;;;5084085;28;20013;-67
2022/02/25 04:04:03;;;;;;;0.80;0.80;;;1.70;99.90;;;;;;5104429;28;20570;-67
2022/02/25 04:06:30;;;;;;;0.80;0.80;;;1.80;99.90;;;;;;5101726;28;20468;-67
2022/02/25 04:08:56;;;;;;;1.00;0.90;;;1.90;99.90;;;;;;5102846;28;20016;-67
2022/02/25 04:11:22;;;;;;;5.35;1.25;;;1.80;99.90;;;;;;5101321;28;20081;-67
2022/02/25 04:13:48;;;;;;;1.58;1.00;;;1.90;99.90;;;;;;5103347;28;20039;-67
2022/02/25 04:16:14;;;;;;;4.00;1.00;;;1.80;99.90;;;;;;5104359;28;20024;-67
2022/02/25 04:18:40;;;;;;;1.75;1.00;;;1.70;99.90;;;;;;5107757;28;20541;-67
2022/02/25 04:21:06;;;;;;;1.23;0.98;;;1.90;99.90;;;;;;5100575;28;20151;-67
2022/02/25 04:23:32;;;;;;;3.47;1.00;;;1.90;99.90;;;;;;5099689;28;20024;-67
2022/02/25 04:25:58;;;;;;;1.30;1.00;;;1.90;99.90;;;;;;5100954;28;20050;-68
2022/02/25 04:28:24;;;;;;;1.55;0.80;;;1.80;99.90;;;;;;5089586;28;20500;-68
2022/02/25 04:30:50;;;;;;;1.38;0.95;;;1.80;99.90;;;;;;5080013;28;20055;-67
2022/02/25 04:33:15;;;;;;;1.50;0.98;;;1.70;99.90;;;;;;5085578;28;20085;-67
2022/02/25 04:35:42;;;;;;;3.08;1.35;;;1.80;99.90;;;;;;5103612;28;20028;-67
2022/02/25 04:38:08;;;;;;;4.22;0.90;;;1.90;99.90;;;;;;5106831;27;20391;-67
2022/02/25 04:40:35;;;;;;;1.58;0.98;;;1.90;99.90;;;;;;5104665;28;20012;-67
2022/02/25 04:43:01;;;;;;;1.55;1.10;;;1.90;99.90;;;;;;5098655;28;20410;-67
2022/02/25 04:45:27;;;;;;;2.80;1.20;;;1.80;99.90;;;;;;5103047;28;20024;-68
2022/02/25 04:47:55;;;;;;;6.60;1.45;;;1.90;99.90;;;;;;5103042;28;20107;-67
2022/02/25 04:50:22;;;;;;;4.20;1.52;;;1.90;99.90;;;;;;5102814;28;20034;-67
2022/02/25 04:52:47;;;;;;;1.50;0.80;;;1.90;99.90;;;;;;5100926;28;20036;-67
2022/02/25 04:55:13;;;;;;;3.03;1.08;;;1.90;99.90;;;;;;5106923;27;20068;-67
2022/02/25 04:57:40;;;;;;;1.27;0.90;;;1.90;99.90;;;;;;5100862;28;20024;-67
2022/02/25 05:00:10;;;;;;;2.40;1.30;;;1.90;99.90;;;;;;5102198;28;20019;-67
2022/02/25 05:02:40;;;;;;;4.72;1.23;;;1.90;99.90;;;;;;5102636;28;20046;-67
2022/02/25 05:05:06;;;;;;;0.95;0.90;;;1.80;99.90;;;;;;5089579;28;20134;-67
2022/02/25 05:07:32;;;;;;;4.35;2.45;;;1.80;99.90;;;;;;5103423;28;20111;-68
2022/02/25 05:09:58;;;;;;;2.25;1.23;;;1.70;99.90;;;;;;5100305;28;20487;-68
2022/02/25 05:12:23;;;;;;;1.50;1.10;;;1.80;99.90;;;;;;5100584;28;20034;-68
2022/02/25 05:20:26;;;;;;;1.40;1.02;;;1.70;99.90;;;;;;5101405;28;20030;-67
2022/02/25 05:22:55;;;;;;;3.13;1.08;;;1.80;99.90;;;;;;5099804;28;20412;-67
2022/02/25 05:25:23;;;;;;;0.82;0.80;;;1.70;99.90;;;;;;5101608;28;20050;-67
2022/02/25 05:27:53;;;;;;;0.80;0.80;;;1.80;99.90;;;;;;5087683;28;20036;-68
2022/02/25 05:30:20;;;;;;;1.02;0.93;;;1.80;99.90;;;;;;5102548;28;20031;-68
2022/02/25 05:32:47;;;;;;;0.90;0.90;;;1.80;99.90;;;;;;5106556;27;20169;-67
2022/02/25 05:35:13;;;;;;;3.38;1.70;;;1.80;99.90;;;;;;5106515;28;20028;-67
2022/02/25 05:37:41;;;;;;;2.47;1.15;;;1.80;99.90;;;;;;5088658;28;20020;-67
2022/02/25 05:40:08;;;;;;;0.70;0.70;;;1.70;99.90;;;;;;5110011;28;20102;-68
2022/02/25 05:42:34;;;;;;;1.52;1.25;;;1.70;99.90;;;;;;5115344;27;20046;-68
2022/02/25 05:45:00;;;;;;;3.55;2.03;;;1.80;99.90;;;;;;5116319;27;20024;-68
2022/02/25 05:47:27;;;;;;;0.80;0.80;;;1.70;99.90;;;;;;5116125;27;20027;-68
2022/02/25 05:49:53;;;;;;;2.75;1.88;;;1.80;99.90;;;;;;5118337;28;20094;-68
2022/02/25 05:52:19;;;;;;;6.93;1.10;;;1.80;99.90;;;;;;5116442;28;20072;-67
2022/02/25 05:54:45;;;;;;;1.08;0.90;;;1.90;99.90;;;;;;5080476;28;20450;-68
2022/02/25 05:57:11;;;;;;;1.58;0.98;;;1.90;99.90;;;;;;5119320;28;20015;-68
2022/02/25 05:59:37;;;;;;;3.90;1.38;;;1.80;99.90;;;;;;5119091;28;20024;-68
2022/02/25 06:02:03;;;;;;;3.10;1.60;;;1.80;99.90;;;;;;5101230;28;20114;-68
2022/02/25 06:04:29;;;;;;;10.15;2.97;;;2.00;99.90;;;;;;5109988;28;20032;-68
2022/02/25 06:06:54;;;;;;;2.60;1.13;;;1.90;99.90;;;;;;5109846;28;20507;-68
2022/02/25 06:09:20;;;;;;;1.73;1.02;;;1.90;99.90;;;;;;5118398;27;20026;-68
2022/02/25 06:11:46;;;;;;;3.28;1.45;;;1.90;99.90;;;;;;5109261;27;20042;-68
2022/02/25 06:14:11;;;;;;;29.67;1.98;;;1.90;99.90;;;;;;5106511;28;20051;-68
2022/02/25 06:16:37;;;;;;;1.58;1.08;;;1.90;99.90;;;;;;5120560;27;20438;-68
2022/02/25 06:19:03;;;;;;;5.32;1.58;;;2.00;99.90;;;;;;5120844;27;20032;-68
2022/02/25 06:21:29;;;;;;;0.85;0.85;;;2.00;99.90;;;;;;5121120;27;20024;-68
2022/02/25 06:23:54;;;;;;;1.20;0.80;;;2.00;99.90;;;;;;5100613;27;20047;-68
2022/02/25 06:26:20;;;;;;;1.90;1.05;;;1.90;99.90;;;;;;5123193;27;20027;-68
2022/02/25 06:28:46;;;;;;;0.80;0.80;;;1.90;99.90;;;;;;5101881;28;20395;-68
2022/02/25 06:31:12;;;;;;;2.95;1.05;;;1.80;99.90;;;;;;5098413;28;20110;-68
2022/02/25 06:33:38;;;;;;;9.82;2.35;;;1.90;99.90;;;;;;5088456;28;20031;-68
2022/02/25 06:36:04;;;;;;;0.95;0.80;;;1.90;99.90;;;;;;5084081;28;20060;-69
2022/02/25 06:38:29;;;;;;;0.85;0.75;;;1.90;99.90;;;;;;5095329;28;20019;-69
2022/02/25 06:40:55;;;;;;;1.63;1.52;;;2.10;99.90;;;;;;5083670;28;20024;-68
2022/02/25 06:43:21;;;;;;;1.67;1.30;;;2.10;99.90;;;;;;5085514;28;20468;-68
2022/02/25 06:45:49;;;;;;;0.80;0.80;;;2.20;99.90;;;;;;5095058;28;20587;-68
2022/02/25 06:48:14;;;;;;;1.65;1.15;;;2.30;99.90;;;;;;5097706;28;20035;-68
2022/02/25 06:50:40;;;;;;;1.67;1.05;;;2.30;99.90;;;;;;5096319;28;20028;-68
2022/02/25 06:53:06;;;;;;;13.32;2.00;;;2.30;99.90;;;;;;5084240;28;20052;-68
2022/02/25 06:55:31;;;;;;;2.05;1.15;;;2.30;99.90;;;;;;5083903;28;20115;-68
2022/02/25 06:57:57;;;;;;;0.90;0.80;;;2.20;99.90;;;;;;5085512;28;20407;-68
2022/02/25 07:00:23;;;;;;;3.63;0.93;;;2.20;99.90;;;;;;5089586;28;20031;-68
2022/02/25 07:02:53;;;;;;;0.93;0.85;;;2.40;99.90;;;;;;5084906;28;20232;-68
2022/02/25 07:05:22;;;;;;;0.70;0.70;;;2.40;99.90;;;;;;5087154;28;20058;-68
2022/02/25 07:07:48;;;;;;;1.00;0.88;;;2.40;99.90;;;;;;5083188;28;20385;-68
2022/02/25 07:10:15;;;;;;;2.90;1.00;;;2.40;99.90;;;;;;5085406;28;20027;-68
2022/02/25 07:12:40;;;;;;;0.98;0.88;;;2.40;99.90;;;;;;5085845;28;20492;-68
2022/02/25 07:15:08;;;;;;;0.80;0.80;;;2.40;99.90;;;;;;5083329;28;20056;-68
2022/02/25 07:17:34;;;;;;;4.32;1.15;;;2.40;99.90;;;;;;5100527;28;20020;-68
2022/02/25 07:20:00;;;;;;;1.40;1.30;;;2.40;99.90;;;;;;5097139;28;20043;-68
2022/02/25 07:22:26;;;;;;;5.97;1.50;;;2.50;99.90;;;;;;5079213;28;20013;-68
2022/02/25 07:24:52;;;;;;;3.00;1.30;;;2.50;99.90;;;;;;5084505;28;20028;-68
2022/02/25 07:27:18;;;;;;;0.80;0.80;;;2.50;99.90;;;;;;5084216;28;20038;-68
2022/02/25 07:29:43;;;;;;;0.82;0.77;;;2.40;99.90;;;;;;5109151;27;20629;-68
2022/02/25 07:32:09;;;;;;;5.60;1.60;;;2.50;99.90;;;;;;5099766;28;20106;-68
2022/02/25 07:34:34;;;;;;;1.13;0.98;;;2.50;99.90;;;;;;5103244;27;20035;-68
2022/02/25 07:37:00;;;;;;;1.15;0.95;;;2.50;99.90;;;;;;5112944;27;20023;-68
2022/02/25 07:39:26;;;;;;;1.48;1.00;;;2.70;99.90;;;;;;5111401;27;20020;-68
2022/02/25 07:41:51;;;;;;;1.50;1.08;;;2.80;99.90;;;;;;5111773;27;20032;-68
2022/02/25 07:44:17;;;;;;;1.92;0.98;;;2.80;99.90;;;;;;5118550;27;20031;-68
2022/02/25 07:46:43;;;;;;;5.55;2.10;;;2.90;99.90;;;;;;5105237;27;20069;-68
2022/02/25 07:49:08;;;;;;;5.22;1.55;;;2.90;99.90;;;;;;5095382;28;20597;-68
2022/02/25 07:51:34;;;;;;;2.70;1.30;;;2.90;99.90;;;;;;5101113;28;20024;-68
2022/02/25 07:54:03;;;;;;;4.20;1.30;;;3.00;99.90;;;;;;5103539;27;20077;-68
2022/02/25 07:56:29;;;;;;;1.30;0.90;;;3.10;99.90;;;;;;5098933;28;20379;-68
2022/02/25 07:58:54;;;;;;;1.13;0.82;;;3.30;99.90;;;;;;5102254;27;20098;-68
2022/02/25 08:01:20;;;;;;;3.65;1.00;;;3.30;99.90;;;;;;5103492;27;20055;-68
2022/02/25 08:03:46;;;;;;;2.72;1.20;;;3.40;99.90;;;;;;5102888;27;20373;-68
2022/02/25 08:06:11;;;;;;;2.67;1.27;;;3.40;99.90;;;;;;5100384;28;20036;-68
2022/02/25 08:08:37;;;;;;;1.45;1.15;;;3.60;99.90;;;;;;5091553;28;20383;-68
2022/02/25 08:11:04;;;;;;;1.10;1.00;;;3.60;99.90;;;;;;5109163;27;20083;-68
2022/02/25 08:13:30;;;;;;;3.17;0.90;;;3.60;99.90;;;;;;5105926;27;20063;-68
2022/02/25 08:15:56;;;;;;;8.38;1.35;;;3.60;99.90;;;;;;5109462;27;20080;-68
2022/02/25 08:18:21;;;;;;;1.23;1.10;;;3.50;99.90;;;;;;5090038;28;20020;-68
2022/02/25 08:20:47;;;;;;;9.02;1.65;;;3.40;99.90;;;;;;5108576;27;20036;-68
2022/02/25 08:23:13;;;;;;;3.03;1.38;;;3.30;99.90;;;;;;5107523;27;20443;-67
2022/02/25 08:25:39;;;;;;;5.68;1.27;;;3.10;99.90;;;;;;5106609;27;20467;-68
2022/02/25 08:28:09;;;;;;;1.80;1.25;;;2.90;99.90;;;;;;5104001;27;20047;-69
2022/02/25 08:30:37;;;;;;;6.05;1.10;;;2.80;99.90;;;;;;5101962;27;20042;-68
2022/02/25 08:33:03;;;;;;;2.65;1.15;;;2.70;99.90;;;;;;5096742;28;20490;-68
2022/02/25 08:35:31;;;;;;;2.85;1.58;;;2.70;99.90;;;;;;5105520;27;20027;-68
2022/02/25 08:37:59;;;;;;;2.28;1.35;;;2.60;99.90;;;;;;5103538;27;20076;-68
2022/02/25 08:40:26;;;;;;;1.60;1.50;;;2.60;99.90;;;;;;5105860;27;20051;-68
2022/02/25 08:42:52;;;;;;;2.65;1.60;;;2.60;99.90;;;;;;5082455;28;20028;-68
2022/02/25 08:45:17;;;;;;;1.60;1.13;;;2.70;99.90;;;;;;5110631;27;20027;-68
2022/02/25 08:47:45;;;;;;;8.40;1.48;;;2.70;99.90;;;;;;5112451;27;20384;-68
2022/02/25 08:50:14;;;;;;;2.42;1.25;;;2.70;99.90;;;;;;5098316;28;20012;-68
2022/02/25 08:52:40;;;;;;;1.58;1.10;;;2.80;99.90;;;;;;5107124;27;20463;-68
2022/02/25 08:55:06;;;;;;;9.20;1.85;;;2.80;99.90;;;;;;5097604;28;20118;-68
2022/02/25 08:57:32;;;;;;;2.50;1.48;;;2.90;99.90;;;;;;5092497;28;20046;-68
2022/02/25 08:59:57;;;;;;;4.15;1.65;;;2.90;99.90;;;;;;5100561;28;20060;-68
2022/02/25 09:02:23;;;;;;;5.07;2.57;;;2.90;99.90;;;;;;5108950;27;20545;-68
2022/02/25 09:04:49;;;;;;;5.07;1.70;;;2.90;99.90;;;;;;5102122;27;20185;-68
2022/02/25 09:07:14;;;;;;;8.00;2.25;;;2.90;99.90;;;;;;5107045;27;20077;-68
2022/02/25 09:09:40;;;;;;;2.25;1.23;;;2.90;99.90;;;;;;5088888;28;20074;-68
2022/02/25 09:12:07;;;;;;;1.10;0.80;;;2.90;99.90;;;;;;5103763;27;20024;-68
2022/02/25 09:14:34;;;;;;;4.30;2.28;;;2.90;99.90;;;;;;5107476;27;20035;-69
2022/02/25 09:16:59;;;;;;;3.35;1.55;;;2.90;99.90;;;;;;5091120;28;20042;-68
2022/02/25 09:19:25;;;;;;;1.88;1.30;;;2.80;99.90;;;;;;5094387;27;20475;-68
2022/02/25 09:21:51;;;;;;;2.17;1.10;;;2.90;99.90;;;;;;5089865;28;20031;-68
2022/02/25 09:24:19;;;;;;;1.35;1.00;;;2.90;99.90;;;;;;5106621;27;20023;-68
2022/02/25 09:26:45;;;;;;;2.75;1.65;;;3.00;99.90;;;;;;5103383;27;20062;-68
2022/02/25 09:29:10;;;;;;;3.00;1.65;;;3.20;99.90;;;;;;5097445;28;20577;-69
2022/02/25 09:31:36;;;;;;;2.35;1.20;;;3.40;99.90;;;;;;5106866;27;20020;-68
2022/02/25 09:34:02;;;;;;;10.88;4.10;;;3.70;99.90;;;;;;5086915;28;20047;-68
2022/02/25 09:36:27;;;;;;;2.08;1.23;;;3.80;99.90;;;;;;5102381;28;20039;-68
2022/02/25 09:38:53;;;;;;;3.92;1.77;;;3.80;99.90;;;;;;5091793;28;20022;-69
2022/02/25 09:41:19;;;;;;;5.35;1.63;;;3.90;99.90;;;;;;5091947;27;20066;-69
2022/02/25 09:43:45;;;;;;;2.17;1.45;;;4.60;99.90;;;;;;5104248;28;20030;-69
2022/02/25 09:46:11;;;;;;;5.78;1.52;;;5.50;99.90;;;;;;5089757;28;20031;-69
2022/02/25 09:48:36;;;;;;;1.98;1.67;;;5.90;99.90;;;;;;5087865;28;20112;-69
2022/02/25 09:51:03;;;;;;;2.22;1.45;;;6.00;99.90;;;;;;5103304;28;20034;-69
2022/02/25 09:53:29;;;;;;;4.28;1.77;;;6.10;99.90;;;;;;5084042;28;20444;-69
2022/02/25 09:55:55;;;;;;;1.70;0.90;;;6.00;99.90;;;;;;5101968;28;20534;-68
2022/02/25 09:58:21;;;;;;;3.65;1.95;;;5.90;99.90;;;;;;5102678;28;20044;-69
2022/02/25 10:00:46;;;;;;;1.02;0.90;;;5.60;99.90;;;;;;5089767;28;20399;-69
2022/02/25 10:03:16;;;;;;;2.15;1.23;;;5.50;99.90;;;;;;5080841;28;20031;-69
2022/02/25 10:05:42;;;;;;;5.63;1.60;;;5.20;99.90;;;;;;5103923;28;20030;-68
2022/02/25 10:08:17;;;;;;;3.75;1.50;;;5.00;99.90;;;;;;5103818;28;20032;-68
2022/02/25 10:10:53;;;;;;;2.80;1.42;;;4.90;99.90;;;;;;5109294;28;20024;-69
2022/02/25 10:13:21;;;;;;;2.47;1.60;;;5.00;99.90;;;;;;5098020;28;20016;-69
2022/02/25 10:15:50;;;;;;;3.67;1.90;;;5.30;99.90;;;;;;5105563;28;20482;-69
2022/02/25 10:18:22;;;;;;;8.45;3.60;;;5.30;99.90;;;;;;5103328;28;20501;-69
2022/02/25 10:20:50;;;;;;;1.52;1.10;;;5.60;99.90;;;;;;5086420;28;20032;-69
2022/02/25 10:23:27;;;;;;;4.88;2.00;;;5.50;99.90;;;;;;5100577;28;20023;-69
2022/02/25 10:26:06;;;;;;;2.30;1.13;;;5.60;99.90;;;;;;5085632;28;20544;-69
2022/02/25 10:28:35;;;;;;;5.07;1.70;;;5.70;99.90;;;;;;5102496;28;20570;-69
2022/02/25 10:31:24;;;;;;;3.60;2.03;;;5.50;99.90;;;;;;5101131;28;20043;-69
2022/02/25 10:34:19;;;;;;;2.20;1.23;;;5.60;99.90;;;;;;5084153;28;20038;-69
2022/02/25 10:36:46;;;;;;;1.23;0.90;;;5.60;99.90;;;;;;5091856;28;20125;-69
2022/02/25 10:39:17;;;;;;;3.10;1.50;;;5.50;99.90;;;;;;5089142;28;20365;-69
2022/02/25 10:42:06;;;;;;;1.98;1.10;;;5.30;99.90;;;;;;5090020;28;20114;-69
2022/02/25 10:44:57;;;;;;;7.80;3.85;;;5.20;99.90;;;;;;5081113;28;20035;-69
2022/02/25 10:47:28;;;;;;;10.57;2.42;;;5.20;99.90;;;;;;5100110;28;20020;-69
2022/02/25 10:50:16;;;;;;;20.65;3.10;;;5.30;99.90;;;;;;5101002;28;20047;-69
2022/02/25 10:52:45;;;;;;;3.13;1.45;;;5.30;99.90;;;;;;5095889;28;20134;-69
2022/02/25 10:55:31;;;;;;;1.90;0.95;;;5.30;99.90;;;;;;5098635;28;20020;-69
2022/02/25 10:58:01;;;;;;;8.07;2.50;;;5.30;99.90;;;;;;5103921;27;20055;-69
2022/02/25 11:00:27;;;;;;;5.88;2.20;;;5.30;99.90;;;;;;5112114;27;20028;-69
2022/02/25 11:02:59;;;;;;;6.30;1.95;;;5.30;99.90;;;;;;5096378;28;20115;-69
2022/02/25 11:05:30;;;;;;;1.30;1.00;;;5.40;99.90;;;;;;5108033;27;20051;-69
2022/02/25 11:08:04;;;;;;;4.13;1.25;;;5.90;99.90;;;;;;5104600;28;20039;-69
2022/02/25 11:10:32;;;;;;;3.17;1.35;;;6.90;99.90;;;;;;5115634;27;20031;-69
2022/02/25 11:13:05;;;;;;;4.75;1.75;;;7.80;99.90;;;;;;5103706;28;20245;-70
2022/02/25 11:15:35;;;;;;;5.85;2.35;;;8.60;99.90;;;;;;5106535;28;20107;-70
2022/02/25 11:18:01;;;;;;;7.53;2.00;;;7.60;99.90;;;;;;5108059;27;20169;-70
2022/02/25 11:20:33;;;;;;;6.78;1.83;;;6.80;99.90;;;;;;5109398;27;20383;-70
2022/02/25 11:23:06;;;;;;;7.15;2.95;;;6.70;99.90;;;;;;5107096;28;20464;-71
2022/02/25 11:25:34;;;;;;;3.92;1.55;;;7.00;99.90;;;;;;5103947;28;20019;-70
2022/02/25 11:28:00;;;;;;;3.85;2.38;;;7.50;99.90;;;;;;5106356;28;20139;-70
2022/02/25 11:30:31;;;;;;;4.80;2.13;;;8.00;99.90;;;;;;5106441;28;20032;-70
2022/02/25 11:33:03;;;;;;;7.55;1.60;;;8.10;99.90;;;;;;5105195;28;20032;-70
2022/02/25 11:35:32;;;;;;;7.10;2.08;;;7.60;99.90;;;;;;5104654;28;20035;-70
2022/02/25 11:38:00;;;;;;;4.93;1.20;;;7.20;99.90;;;;;;5092159;27;20567;-70
2022/02/25 11:40:45;;;;;;;9.85;1.77;;;7.10;99.90;;;;;;5111301;27;20375;-70
2022/02/25 11:43:11;;;;;;;2.30;1.17;;;7.20;99.90;;;;;;5107363;27;20028;-70
2022/02/25 11:45:52;;;;;;;5.57;1.70;;;7.20;99.90;;;;;;5091636;28;20925;-70
2022/02/25 11:48:23;;;;;;;4.78;1.50;;;7.00;99.90;;;;;;5092352;27;20028;-70
2022/02/25 11:50:52;;;;;;;7.28;2.88;;;6.60;99.90;;;;;;5104405;27;20028;-70
2022/02/25 11:53:28;;;;;;;4.20;1.67;;;6.40;99.90;;;;;;5096844;27;20035;-70
2022/02/25 11:55:54;;;;;;;2.92;1.45;;;6.10;99.90;;;;;;5093552;28;20024;-69
2022/02/25 11:58:40;;;;;;;3.10;1.50;;;5.80;99.90;;;;;;5102009;28;20040;-69
2022/02/25 12:01:16;;;;;;;3.30;1.58;;;5.70;99.90;;;;;;5102937;28;20031;-69
2022/02/25 12:03:58;;;;;;;10.05;2.53;;;5.60;99.90;;;;;;5100362;28;20434;-70
2022/02/25 12:06:55;;;;;;;7.45;1.92;;;5.40;99.90;;;;;;5105608;27;20356;-69
2022/02/25 12:09:51;;;;;;;10.88;3.22;;;5.50;99.90;;;;;;5099274;28;20027;-69
2022/02/25 12:12:28;;;;;;;2.60;1.50;;;5.20;99.90;;;;;;5099815;28;20023;-69
2022/02/25 12:14:57;;;;;;;0.73;0.73;;;5.10;99.90;;;;;;5085495;28;20028;-69
2022/02/25 12:17:43;;;;;;;2.22;1.67;;;5.00;99.90;;;;;;5106064;27;20388;-69
2022/02/25 12:20:22;;;;;;;6.07;1.80;;;5.30;99.90;;;;;;5091410;28;20023;-69
2022/02/25 12:22:58;;;;;;;3.75;1.65;;;5.90;99.90;;;;;;5107809;27;20244;-69
2022/02/25 12:25:39;;;;;;;8.93;2.20;;;6.20;99.90;;;;;;5089118;28;20024;-69
2022/02/25 12:28:20;;;;;;;2.05;1.15;;;7.10;99.90;;;;;;5103022;28;20075;-69
2022/02/25 12:30:54;;;;;;;6.53;2.30;;;8.20;99.90;;;;;;5098325;28;20035;-69
2022/02/25 12:33:33;;;;;;;5.15;1.30;;;8.30;99.90;;;;;;5084790;28;20031;-69
2022/02/25 12:36:05;;;;;;;4.35;1.92;;;8.50;99.90;;;;;;5091091;28;20032;-69
2022/02/25 12:38:39;;;;;;;3.65;1.40;;;8.10;99.90;;;;;;5091331;27;20151;-69
2022/02/25 12:41:18;;;;;;;4.90;1.75;;;7.50;99.90;;;;;;5106516;27;20399;-70
2022/02/25 12:43:52;;;;;;;3.78;1.75;;;6.90;99.90;;;;;;5111746;27;20106;-70
2022/02/25 12:46:20;;;;;;;8.95;2.80;;;6.90;99.90;;;;;;5113305;27;20582;-67
2022/02/25 12:48:47;;;;;;;6.28;2.20;;;6.90;99.90;;;;;;5091084;27;20483;-67
2022/02/25 12:51:14;;;;;;;3.55;1.42;;;6.80;99.90;;;;;;5111701;27;20436;-67
2022/02/25 12:53:59;;;;;;;13.07;2.42;;;6.70;99.90;;;;;;5108055;27;20024;-67
2022/02/25 12:56:34;;;;;;;5.43;2.72;;;6.60;99.90;;;;;;5086720;27;20155;-67
2022/02/25 12:59:03;;;;;;;5.20;1.80;;;6.60;99.90;;;;;;5102642;28;20032;-68
2022/02/25 13:01:30;;;;;;;5.90;1.67;;;6.70;99.90;;;;;;5091379;28;20391;-68
2022/02/25 13:04:04;;;;;;;2.08;1.50;;;6.70;99.90;;;;;;5114227;27;20016;-68
2022/02/25 13:06:34;;;;;;;11.00;2.83;;;6.90;99.90;;;;;;5090669;27;20068;-68